Time;durP1;ratioP1;P1;durP2;ratioP2;P2;SDS_P1;SDS_P2;PMS_P1;PMS_P2;Temp;Humidity;BMP_temperature;BMP_pressure;BME280_temperature;BME280_humidity;BME280_pressure;Samples;Min_cycle;Max_cycle;Signal;HPM_P1;HPM_P2
2022/08/24 00:02:24;;;;;;;6.32;3.42;;;22.00;70.20;;;;;;5116832;28;20047;-41
2022/08/24 00:04:51;;;;;;;5.88;3.47;;;22.00;70.30;;;;;;5116598;28;20073;-39
2022/08/24 00:07:18;;;;;;;5.18;3.50;;;21.90;70.20;;;;;;5116905;28;20024;-38
2022/08/24 00:09:45;;;;;;;7.50;3.20;;;21.90;70.00;;;;;;5116500;28;20020;-44
2022/08/24 00:12:12;;;;;;;6.30;2.63;;;21.90;70.00;;;;;;5117288;28;20028;-38
2022/08/24 00:14:38;;;;;;;7.47;3.05;;;21.90;69.80;;;;;;5115272;28;20559;-39
2022/08/24 00:17:04;;;;;;;5.53;2.72;;;21.80;69.90;;;;;;5116630;28;20020;-39
2022/08/24 00:19:31;;;;;;;9.98;4.35;;;21.90;70.00;;;;;;5116353;28;20015;-39
2022/08/24 00:21:56;;;;;;;7.30;3.08;;;22.00;69.90;;;;;;5116354;28;20023;-39
2022/08/24 00:24:22;;;;;;;5.68;2.88;;;21.90;69.80;;;;;;5116274;28;20332;-38
2022/08/24 00:26:48;;;;;;;10.27;3.15;;;21.90;69.70;;;;;;5116345;28;20031;-40
2022/08/24 00:29:16;;;;;;;9.23;3.78;;;22.00;69.80;;;;;;5114923;28;20034;-39
2022/08/24 00:31:42;;;;;;;8.73;3.50;;;22.00;70.00;;;;;;5114943;28;20464;-39
2022/08/24 00:34:07;;;;;;;6.10;3.20;;;21.90;70.20;;;;;;5114773;28;20031;-39
2022/08/24 00:36:34;;;;;;;6.10;4.05;;;21.80;70.40;;;;;;5114761;28;20368;-39
2022/08/24 00:39:00;;;;;;;4.72;3.20;;;21.80;70.60;;;;;;5116199;28;20020;-39
2022/08/24 00:41:27;;;;;;;6.97;4.88;;;21.70;71.00;;;;;;5115867;28;20038;-39
2022/08/24 00:43:59;;;;;;;5.40;3.20;;;21.50;71.50;;;;;;5114606;28;20127;-38
2022/08/24 00:46:40;;;;;;;4.50;3.10;;;21.40;72.10;;;;;;5115927;28;20020;-39
2022/08/24 00:49:12;;;;;;;5.82;3.90;;;21.40;72.40;;;;;;5115884;28;20107;-39
2022/08/24 00:52:08;;;;;;;6.32;3.40;;;21.40;72.50;;;;;;5114824;28;20032;-39
2022/08/24 00:54:38;;;;;;;5.60;3.63;;;21.30;72.90;;;;;;5115454;28;20031;-39
2022/08/24 00:57:09;;;;;;;6.53;3.42;;;21.30;73.10;;;;;;5113983;28;20467;-39
2022/08/24 00:59:42;;;;;;;;;;;21.30;73.10;;;;;;5115337;28;20027;-39
2022/08/24 01:02:14;;;;;;;5.25;3.50;;;21.20;73.10;;;;;;5115337;28;19913;-39
2022/08/24 01:05:00;;;;;;;6.57;3.88;;;21.20;72.90;;;;;;5115728;28;20356;-39
2022/08/24 01:07:28;;;;;;;4.88;3.15;;;21.20;72.70;;;;;;5115375;28;20030;-39
2022/08/24 01:09:57;;;;;;;9.57;3.30;;;21.20;72.50;;;;;;5115210;28;20072;-39
2022/08/24 01:12:25;;;;;;;9.05;4.22;;;21.10;72.60;;;;;;5115599;28;20027;-40
2022/08/24 01:14:51;;;;;;;6.00;3.47;;;21.20;72.50;;;;;;5114274;28;20081;-39
2022/08/24 01:20:03;;;;;;;4.82;3.72;;;21.10;72.60;;;;;;5116144;28;20035;-39
2022/08/24 01:22:52;;;;;;;7.68;3.65;;;21.00;73.00;;;;;;5115276;28;20027;-39
2022/08/24 01:25:18;;;;;;;5.75;3.10;;;20.90;73.30;;;;;;5115475;28;20030;-39
2022/08/24 01:27:46;;;;;;;6.85;3.40;;;20.90;73.60;;;;;;5115257;28;20025;-39
2022/08/24 01:30:14;;;;;;;6.22;3.55;;;20.80;73.60;;;;;;5115442;28;20045;-40
2022/08/24 01:32:41;;;;;;;8.48;3.92;;;20.80;73.60;;;;;;5115193;28;20042;-39
2022/08/24 01:35:08;;;;;;;4.72;3.05;;;20.80;73.50;;;;;;5115627;28;20360;-40
2022/08/24 01:37:35;;;;;;;5.25;3.15;;;20.80;73.30;;;;;;5115278;28;20031;-39
2022/08/24 01:40:05;;;;;;;5.95;2.90;;;20.80;73.20;;;;;;5115169;28;20026;-39
2022/08/24 01:42:33;;;;;;;6.25;3.08;;;20.80;72.90;;;;;;5115821;28;20054;-39
2022/08/24 01:44:59;;;;;;;4.72;2.97;;;20.80;72.80;;;;;;5115133;28;20031;-39
2022/08/24 01:47:24;;;;;;;6.10;3.13;;;20.80;72.50;;;;;;5114354;28;20034;-38
2022/08/24 01:49:50;;;;;;;4.63;2.55;;;20.90;72.20;;;;;;5115081;28;20027;-40
2022/08/24 01:52:20;;;;;;;7.82;3.30;;;20.80;71.90;;;;;;5115182;28;20023;-43
2022/08/24 01:54:45;;;;;;;7.95;3.22;;;20.90;71.90;;;;;;5115054;28;20360;-39
2022/08/24 01:57:12;;;;;;;4.65;2.60;;;20.90;71.70;;;;;;5114787;28;20085;-39
2022/08/24 01:59:39;;;;;;;5.05;2.78;;;20.90;71.60;;;;;;5114723;28;20063;-40
2022/08/24 02:02:15;;;;;;;6.43;2.85;;;20.90;71.60;;;;;;5115169;28;20069;-40
2022/08/24 02:04:40;;;;;;;6.10;3.58;;;20.90;72.30;;;;;;5114540;28;20019;-39
2022/08/24 02:07:08;;;;;;;6.07;4.63;;;20.90;72.50;;;;;;5112757;28;20528;-39
2022/08/24 02:09:35;;;;;;;14.20;8.88;;;20.90;72.80;;;;;;5114723;28;20379;-38
2022/08/24 02:12:01;;;;;;;7.75;4.45;;;20.80;73.10;;;;;;5114479;28;20471;-38
2022/08/24 02:14:27;;;;;;;6.80;3.80;;;20.80;73.20;;;;;;5114635;28;20023;-39
2022/08/24 02:16:53;;;;;;;5.35;3.17;;;20.80;73.40;;;;;;5114558;28;20080;-38
2022/08/24 02:19:19;;;;;;;5.10;3.22;;;20.80;73.30;;;;;;5114707;28;20482;-39
2022/08/24 02:21:45;;;;;;;8.13;3.90;;;20.80;73.20;;;;;;5114576;28;20047;-38
2022/08/24 02:24:11;;;;;;;5.15;3.47;;;20.80;73.30;;;;;;5114188;28;20099;-38
2022/08/24 02:26:36;;;;;;;6.60;4.40;;;20.80;73.50;;;;;;5114502;28;20472;-38
2022/08/24 02:29:03;;;;;;;5.13;3.20;;;20.80;73.70;;;;;;5114394;28;20406;-38
2022/08/24 02:31:29;;;;;;;3.65;3.20;;;20.70;74.00;;;;;;5112741;28;20034;-39
2022/08/24 02:33:55;;;;;;;5.40;3.85;;;20.60;74.40;;;;;;5113965;28;20024;-38
2022/08/24 02:36:22;;;;;;;6.53;4.13;;;20.50;74.70;;;;;;5113767;28;20020;-38
2022/08/24 02:38:48;;;;;;;16.05;5.82;;;20.40;75.00;;;;;;5113966;28;20024;-38
2022/08/24 02:41:14;;;;;;;7.00;4.07;;;20.40;75.20;;;;;;5113878;28;20110;-38
2022/08/24 02:43:39;;;;;;;4.68;3.00;;;20.30;75.10;;;;;;5113771;28;20062;-39
2022/08/24 02:46:05;;;;;;;5.03;3.50;;;20.30;75.50;;;;;;5114014;28;20110;-38
2022/08/24 02:48:31;;;;;;;9.05;4.13;;;20.30;75.20;;;;;;5113660;28;20064;-39
2022/08/24 02:50:57;;;;;;;6.07;3.25;;;20.30;75.20;;;;;;5113784;28;20063;-38
2022/08/24 02:53:23;;;;;;;5.75;3.33;;;20.10;75.80;;;;;;5113688;28;20356;-38
2022/08/24 02:55:49;;;;;;;7.70;4.13;;;20.10;75.90;;;;;;5113515;28;20076;-38
2022/08/24 02:58:16;;;;;;;4.13;3.22;;;20.00;75.90;;;;;;5113203;28;20054;-38
2022/08/24 03:00:46;;;;;;;6.22;4.03;;;20.00;76.00;;;;;;5112991;28;20026;-39
2022/08/24 03:03:12;;;;;;;9.13;3.70;;;20.10;76.10;;;;;;5113527;28;20096;-39
2022/08/24 03:05:38;;;;;;;6.28;4.13;;;20.10;76.10;;;;;;5111776;28;20510;-37
2022/08/24 03:08:04;;;;;;;5.07;3.65;;;20.20;75.80;;;;;;5113410;28;20031;-38
2022/08/24 03:10:30;;;;;;;7.25;3.78;;;20.20;75.60;;;;;;5114280;28;20463;-39
2022/08/24 03:12:57;;;;;;;6.97;4.20;;;20.20;75.40;;;;;;5113079;28;20539;-40
2022/08/24 03:15:23;;;;;;;10.85;4.25;;;20.20;75.20;;;;;;5113387;28;20038;-38
2022/08/24 03:17:50;;;;;;;9.93;3.70;;;20.20;75.30;;;;;;5113276;28;20417;-37
2022/08/24 03:20:20;;;;;;;14.43;6.70;;;20.20;75.10;;;;;;5117019;28;20063;-38
2022/08/24 03:22:45;;;;;;;11.45;5.45;;;20.20;75.00;;;;;;5117182;28;20035;-38
2022/08/24 03:25:14;;;;;;;8.77;5.47;;;20.20;75.30;;;;;;5117060;28;20034;-38
2022/08/24 03:27:40;;;;;;;5.82;3.35;;;20.10;75.40;;;;;;5117157;28;20031;-38
2022/08/24 03:30:07;;;;;;;6.72;3.25;;;20.00;75.30;;;;;;5115548;28;20092;-38
2022/08/24 03:32:33;;;;;;;6.78;4.28;;;20.00;75.40;;;;;;5117553;28;20072;-39
2022/08/24 03:34:58;;;;;;;12.90;3.30;;;20.00;75.60;;;;;;5115706;28;20028;-39
2022/08/24 03:37:24;;;;;;;8.90;4.38;;;20.00;75.50;;;;;;5116668;28;20051;-38
2022/08/24 03:39:50;;;;;;;8.68;3.97;;;20.10;75.50;;;;;;5116925;28;20019;-38
2022/08/24 03:42:16;;;;;;;9.65;4.00;;;20.10;75.60;;;;;;5117087;28;20029;-38
2022/08/24 03:44:41;;;;;;;9.60;4.40;;;20.00;75.40;;;;;;5115332;28;20110;-38
2022/08/24 03:47:12;;;;;;;5.35;3.42;;;20.00;76.20;;;;;;5117957;28;20028;-38
2022/08/24 03:49:37;;;;;;;6.30;4.13;;;19.90;76.70;;;;;;5115389;28;20065;-38
2022/08/24 03:52:04;;;;;;;7.05;3.60;;;19.90;77.10;;;;;;5116791;28;20402;-39
2022/08/24 03:54:30;;;;;;;7.78;4.10;;;19.90;76.90;;;;;;5116672;28;20507;-39
2022/08/24 03:56:57;;;;;;;6.20;3.38;;;19.80;77.30;;;;;;5116678;28;20050;-38
2022/08/24 03:59:23;;;;;;;8.30;4.05;;;19.80;77.30;;;;;;5117247;28;20031;-40
2022/08/24 04:01:50;;;;;;;8.43;3.30;;;19.70;77.60;;;;;;5117492;28;20047;-39
2022/08/24 04:04:16;;;;;;;8.95;4.43;;;19.70;77.70;;;;;;5116773;28;20024;-39
2022/08/24 04:06:43;;;;;;;12.80;4.43;;;19.70;77.90;;;;;;5117035;28;20531;-38
2022/08/24 04:09:10;;;;;;;13.80;6.10;;;19.60;78.10;;;;;;5116722;28;20057;-38
2022/08/24 04:11:36;;;;;;;11.55;4.97;;;19.70;78.20;;;;;;5115113;28;20023;-39
2022/08/24 18:55:53;;;;;;;9.18;3.40;;;28.70;40.60;;;;;;5070558;28;20386;-40
2022/08/24 18:58:18;;;;;;;4.30;3.05;;;28.70;40.70;;;;;;5069696;28;20047;-38
2022/08/24 19:00:45;;;;;;;3.78;2.53;;;28.70;40.70;;;;;;5068519;28;20104;-39
2022/08/24 19:03:15;;;;;;;4.78;2.35;;;28.60;40.80;;;;;;5069656;28;20031;-39
2022/08/24 19:05:41;;;;;;;6.15;2.20;;;28.50;40.70;;;;;;5069888;28;20418;-39
2022/08/24 19:08:07;;;;;;;4.60;2.47;;;28.50;40.90;;;;;;5069817;28;20168;-39
2022/08/24 19:10:35;;;;;;;5.65;2.45;;;28.50;40.90;;;;;;5070196;28;20098;-40
2022/08/24 19:13:07;;;;;;;5.60;2.47;;;28.40;41.00;;;;;;5069596;28;20017;-40
2022/08/24 19:15:32;;;;;;;3.17;2.03;;;28.30;41.30;;;;;;5069964;28;20031;-40
2022/08/24 19:17:58;;;;;;;4.15;2.60;;;28.30;41.20;;;;;;5069706;28;20028;-39
2022/08/24 19:20:25;;;;;;;13.00;5.30;;;28.30;41.50;;;;;;5069650;28;20102;-39
2022/08/24 19:22:52;;;;;;;3.20;2.25;;;28.20;41.60;;;;;;5069556;28;20028;-40
2022/08/24 19:25:24;;;;;;;4.78;2.47;;;28.20;41.60;;;;;;5069459;28;20021;-39
2022/08/24 19:27:50;;;;;;;5.22;1.90;;;28.10;41.80;;;;;;5069282;28;20026;-40
2022/08/24 19:30:17;;;;;;;4.80;2.25;;;28.00;42.00;;;;;;5069311;28;20096;-39
2022/08/24 19:32:43;;;;;;;2.63;2.03;;;27.90;41.90;;;;;;5069812;28;20028;-38
2022/08/24 19:35:11;;;;;;;4.28;2.17;;;27.90;42.00;;;;;;5069831;28;20051;-38
2022/08/24 19:37:37;;;;;;;4.45;2.25;;;27.80;42.10;;;;;;5069263;28;20024;-39
2022/08/24 19:40:04;;;;;;;3.17;1.85;;;27.80;42.20;;;;;;5069382;28;20094;-39
2022/08/24 19:42:30;;;;;;;3.70;2.33;;;27.70;42.30;;;;;;5067758;28;20025;-40
2022/08/24 19:47:42;;;;;;;5.85;2.38;;;27.70;42.30;;;;;;5069448;28;20163;-39
2022/08/24 19:50:08;;;;;;;6.03;2.22;;;27.70;42.30;;;;;;5069318;28;20123;-40
2022/08/24 19:52:35;;;;;;;6.38;3.38;;;27.60;42.40;;;;;;5067738;28;20484;-39
2022/08/24 19:55:03;;;;;;;5.10;2.67;;;27.50;42.50;;;;;;5069224;28;20051;-39
2022/08/24 19:57:39;;;;;;;4.22;2.13;;;27.50;42.60;;;;;;5069000;28;20020;-39
2022/08/24 20:00:27;;;;;;;3.80;2.25;;;27.50;42.60;;;;;;5069320;28;20056;-40
2022/08/24 20:02:55;;;;;;;4.88;2.70;;;27.40;42.60;;;;;;5068470;28;20102;-40
2022/08/24 20:05:23;;;;;;;4.40;2.70;;;27.40;42.70;;;;;;5066236;28;20022;-40
2022/08/24 20:07:49;;;;;;;4.47;2.75;;;27.30;42.90;;;;;;5054334;28;20035;-40
2022/08/24 20:10:18;;;;;;;7.25;2.47;;;27.30;43.00;;;;;;5055516;28;20020;-39
2022/08/24 20:12:44;;;;;;;5.67;2.60;;;27.30;43.10;;;;;;5055716;28;20044;-38
2022/08/24 20:15:11;;;;;;;6.55;2.42;;;27.30;43.00;;;;;;5055609;28;20029;-39
2022/08/24 20:17:37;;;;;;;8.00;2.50;;;27.20;43.00;;;;;;5055111;28;20074;-39
2022/08/24 20:20:06;;;;;;;3.75;2.28;;;27.30;43.00;;;;;;5055142;28;20022;-39
2022/08/24 20:22:31;;;;;;;6.15;2.40;;;27.20;43.00;;;;;;5055544;28;20021;-39
2022/08/24 20:24:57;;;;;;;4.72;2.00;;;27.20;43.00;;;;;;5055274;28;20031;-39
2022/08/24 20:27:25;;;;;;;4.80;2.35;;;27.10;43.00;;;;;;5055413;28;20033;-39
2022/08/24 20:29:53;;;;;;;4.75;2.25;;;27.10;43.10;;;;;;5055557;28;20032;-40
2022/08/24 20:32:19;;;;;;;5.32;2.47;;;27.10;43.10;;;;;;5055620;28;20029;-39
2022/08/24 20:34:44;;;;;;;4.47;2.88;;;27.00;43.20;;;;;;5054999;28;20037;-40
2022/08/24 20:37:20;;;;;;;5.15;2.08;;;27.00;43.40;;;;;;5055189;28;20024;-40
2022/08/24 20:39:45;;;;;;;3.38;1.95;;;26.80;43.50;;;;;;5055444;28;20037;-39
2022/08/24 20:42:11;;;;;;;4.50;2.83;;;26.80;43.60;;;;;;5055170;28;20433;-40
2022/08/24 20:44:37;;;;;;;3.78;2.45;;;26.80;43.80;;;;;;5053947;28;20032;-39
2022/08/24 20:47:03;;;;;;;5.35;2.25;;;26.70;43.80;;;;;;5055092;28;20036;-39
2022/08/24 20:49:31;;;;;;;4.15;1.95;;;26.70;44.10;;;;;;5055016;28;20032;-40
2022/08/24 20:51:59;;;;;;;2.45;2.25;;;26.60;44.10;;;;;;5054183;28;20035;-39
2022/08/24 20:54:25;;;;;;;5.85;2.42;;;26.50;44.20;;;;;;5054947;28;20049;-40
2022/08/24 20:56:51;;;;;;;2.97;2.10;;;26.50;44.30;;;;;;5054819;28;20067;-38
2022/08/24 20:59:18;;;;;;;3.97;2.42;;;26.50;44.40;;;;;;5055402;28;20039;-40
2022/08/24 21:01:44;;;;;;;10.35;2.70;;;26.40;44.40;;;;;;5055138;28;20386;-39
2022/08/24 21:04:10;;;;;;;4.90;3.20;;;26.50;44.50;;;;;;5055113;28;20484;-41
2022/08/24 21:06:38;;;;;;;6.40;3.25;;;26.40;44.50;;;;;;5054683;28;20052;-39
2022/08/24 21:09:04;;;;;;;7.47;3.55;;;26.40;44.50;;;;;;5054915;28;20167;-39
2022/08/24 21:11:33;;;;;;;5.10;2.28;;;26.30;44.80;;;;;;5054862;28;20040;-40
2022/08/24 21:14:00;;;;;;;6.57;2.10;;;26.30;44.70;;;;;;5054670;28;20032;-40
2022/08/24 21:16:26;;;;;;;5.53;2.83;;;26.20;44.90;;;;;;5054906;28;20025;-39
2022/08/24 21:18:52;;;;;;;5.35;2.33;;;26.20;44.90;;;;;;5054000;28;20099;-38
2022/08/24 21:21:18;;;;;;;4.88;2.05;;;26.20;45.00;;;;;;5055108;28;20175;-41
2022/08/24 21:23:43;;;;;;;11.73;3.60;;;26.10;45.00;;;;;;5054908;28;20017;-39
2022/08/24 21:26:12;;;;;;;3.65;2.63;;;26.10;45.20;;;;;;5054261;28;20021;-39
2022/08/24 21:28:40;;;;;;;2.63;1.92;;;26.10;45.20;;;;;;5053513;28;20381;-39
2022/08/24 21:31:06;;;;;;;5.70;2.78;;;26.10;45.10;;;;;;5054067;28;20099;-39
2022/08/24 21:36:19;;;;;;;7.43;3.25;;;25.90;45.50;;;;;;5054944;28;20471;-39
2022/08/24 21:38:45;;;;;;;3.35;2.13;;;25.90;45.60;;;;;;5054568;28;20139;-39
2022/08/24 21:41:10;;;;;;;4.70;2.45;;;25.90;45.50;;;;;;5054141;28;20513;-39
2022/08/24 21:43:36;;;;;;;8.43;2.95;;;25.90;45.50;;;;;;5054338;28;20025;-40
2022/08/24 21:46:01;;;;;;;5.18;2.72;;;25.80;45.70;;;;;;5052690;28;20377;-39
2022/08/24 21:48:27;;;;;;;6.60;2.72;;;25.80;45.70;;;;;;5053936;28;20166;-39
2022/08/24 21:50:53;;;;;;;4.55;2.17;;;25.80;45.90;;;;;;5054159;28;20500;-40
2022/08/24 21:53:18;;;;;;;6.38;3.20;;;25.70;46.00;;;;;;5053949;28;20384;-38
2022/08/24 21:55:44;;;;;;;8.10;3.00;;;25.60;46.20;;;;;;5053676;28;20515;-40
2022/08/24 21:58:11;;;;;;;5.15;2.97;;;25.50;46.30;;;;;;5054482;28;20078;-38
2022/08/24 22:00:37;;;;;;;5.47;3.90;;;25.60;46.40;;;;;;5053049;28;20116;-39
2022/08/24 22:03:03;;;;;;;10.63;2.67;;;25.50;46.50;;;;;;5053694;28;20021;-39
2022/08/24 22:05:30;;;;;;;4.85;2.50;;;25.50;46.60;;;;;;5054292;28;20025;-39
2022/08/24 22:07:57;;;;;;;6.97;2.83;;;25.40;46.70;;;;;;5054580;28;20036;-40
2022/08/24 22:10:24;;;;;;;6.35;2.85;;;25.40;46.80;;;;;;5054004;28;20075;-39
2022/08/24 22:12:53;;;;;;;5.90;2.70;;;25.40;46.60;;;;;;5053887;28;20021;-38
2022/08/24 22:15:20;;;;;;;3.58;2.53;;;25.30;46.80;;;;;;5052234;28;20033;-40
2022/08/24 22:17:46;;;;;;;6.30;3.70;;;25.20;47.10;;;;;;5053696;28;20021;-40
2022/08/24 22:20:14;;;;;;;6.53;2.70;;;25.40;47.00;;;;;;5053421;28;20021;-39
2022/08/24 22:22:40;;;;;;;5.45;3.10;;;25.30;46.90;;;;;;5052006;28;20112;-39
2022/08/24 22:25:11;;;;;;;5.25;2.05;;;25.20;47.30;;;;;;5052306;28;20136;-40
2022/08/24 22:27:42;;;;;;;4.38;2.50;;;25.10;47.50;;;;;;5052419;28;20024;-39
2022/08/24 22:30:11;;;;;;;7.30;2.40;;;25.10;47.60;;;;;;5052174;28;20496;-40
2022/08/24 22:32:40;;;;;;;6.30;2.25;;;25.10;47.70;;;;;;5020194;28;20029;-39
2022/08/24 22:35:07;;;;;;;3.20;2.50;;;25.00;47.60;;;;;;5053466;28;20422;-44
2022/08/24 22:37:33;;;;;;;4.63;2.55;;;25.00;47.70;;;;;;5054520;28;20021;-39
2022/08/24 22:39:59;;;;;;;6.65;2.55;;;24.90;47.80;;;;;;5054348;28;20429;-39
2022/08/24 22:42:25;;;;;;;7.85;3.05;;;24.90;47.90;;;;;;5053806;28;20035;-39
2022/08/24 22:44:51;;;;;;;3.65;2.65;;;24.90;47.80;;;;;;5054018;28;20499;-39
2022/08/24 22:47:18;;;;;;;7.78;2.80;;;24.80;48.20;;;;;;5053513;28;20052;-40
2022/08/24 22:49:44;;;;;;;8.82;2.70;;;24.80;48.20;;;;;;5052953;28;20029;-40
2022/08/24 22:52:11;;;;;;;3.03;2.00;;;24.80;48.30;;;;;;5052862;28;20024;-39
2022/08/24 22:54:37;;;;;;;6.53;2.67;;;24.70;48.60;;;;;;5052939;28;20080;-39
2022/08/24 22:57:03;;;;;;;3.25;2.85;;;24.60;48.80;;;;;;5051758;28;20049;-40
2022/08/24 22:59:36;;;;;;;7.50;3.35;;;24.50;49.00;;;;;;5052875;28;20021;-39
2022/08/24 23:02:08;;;;;;;4.18;2.97;;;24.50;49.00;;;;;;5053211;28;20028;-38
2022/08/24 23:04:36;;;;;;;8.57;2.70;;;24.50;49.00;;;;;;5052828;28;20386;-40
2022/08/24 23:07:03;;;;;;;4.78;2.50;;;24.40;49.20;;;;;;5051505;28;20119;-40
2022/08/24 23:09:29;;;;;;;8.20;2.53;;;24.40;49.30;;;;;;5052667;28;20029;-39
2022/08/24 23:11:55;;;;;;;8.05;2.55;;;24.40;49.40;;;;;;5052748;28;20092;-39
2022/08/24 23:14:23;;;;;;;5.90;2.15;;;24.40;49.40;;;;;;5052645;28;20032;-39
2022/08/24 23:16:49;;;;;;;13.32;2.95;;;24.30;49.50;;;;;;5052723;28;20025;-39
2022/08/24 23:22:08;;;;;;;6.15;2.83;;;24.10;50.00;;;;;;5053030;28;20100;-42
2022/08/24 23:24:35;;;;;;;7.70;3.20;;;24.00;50.30;;;;;;5053178;28;20037;-37
2022/08/24 23:27:02;;;;;;;8.65;2.85;;;24.00;50.40;;;;;;5052684;28;20485;-39
2022/08/24 23:29:28;;;;;;;6.50;2.92;;;24.00;50.50;;;;;;5052695;28;20109;-39
2022/08/24 23:31:53;;;;;;;7.68;2.50;;;23.90;50.70;;;;;;5051451;28;20064;-39
2022/08/24 23:34:21;;;;;;;10.23;2.53;;;23.80;50.80;;;;;;5052577;28;20087;-39
2022/08/24 23:36:47;;;;;;;6.07;2.97;;;23.80;51.10;;;;;;5053023;28;20080;-38
2022/08/24 23:39:12;;;;;;;5.78;2.78;;;23.80;51.10;;;;;;5051428;28;20025;-39
2022/08/24 23:41:42;;;;;;;9.55;2.47;;;23.80;51.30;;;;;;5053395;28;20432;-38
2022/08/24 23:44:11;;;;;;;5.07;2.92;;;23.70;51.30;;;;;;5056303;28;20048;-39
2022/08/24 23:46:38;;;;;;;6.72;2.92;;;23.70;51.40;;;;;;5038576;28;20072;-39
2022/08/24 23:49:04;;;;;;;7.93;3.58;;;23.70;51.60;;;;;;5056889;28;20453;-38
2022/08/24 23:51:30;;;;;;;4.47;2.83;;;23.60;51.70;;;;;;5054729;28;20029;-39
2022/08/24 23:53:56;;;;;;;3.85;2.50;;;23.60;51.80;;;;;;5055928;28;20534;-39
2022/08/24 23:56:28;;;;;;;9.07;3.70;;;23.50;52.10;;;;;;5056293;28;20025;-39
2022/08/24 23:58:58;;;;;;;5.80;3.10;;;23.50;52.10;;;;;;5056012;28;20029;-39
